createdAt,value
2022-09-05T00:00:03.288Z,97097.69
2022-09-05T00:02:50.930Z,97093.91
2022-09-05T00:05:29.592Z,97092.53
2022-09-05T00:08:04.174Z,97090.69
2022-09-05T00:11:39.936Z,97085.38
2022-09-05T00:13:32.044Z,97081.59
2022-09-05T00:16:15.409Z,97082.03
2022-09-05T00:24:21.085Z,97091.69
2022-09-05T00:24:22.209Z,97096.31
2022-09-05T00:27:57.287Z,97070.09
2022-09-05T00:31:51.851Z,97080.75
2022-09-05T00:33:27.070Z,97080.22
2022-09-05T00:36:12.639Z,97076.53
2022-09-05T00:38:52.586Z,97074.03
2022-09-05T00:41:20.741Z,97070.50
2022-09-05T00:43:51.281Z,97077.13
2022-09-05T00:46:24.350Z,97082.47
2022-09-05T00:49:00.125Z,97091.72
2022-09-05T00:51:36.744Z,97094.50
2022-09-05T00:54:28.349Z,97092.00
2022-09-05T00:57:33.205Z,97096.75
2022-09-05T01:00:17.057Z,97090.88
2022-09-05T01:03:10.180Z,97086.94
2022-09-05T01:06:03.133Z,97087.06
2022-09-05T01:09:07.596Z,97084.97
2022-09-05T01:11:46.582Z,97077.41
2022-09-05T01:14:37.021Z,97066.88
2022-09-05T01:17:28.548Z,97065.34
2022-09-05T01:20:19.407Z,97072.78
2022-09-05T01:23:25.538Z,97065.63
2022-09-05T01:26:09.798Z,97058.47
2022-09-05T01:31:50.319Z,97052.03
2022-09-05T01:34:32.023Z,97057.78
2022-09-05T01:37:08.726Z,97050.22
2022-09-05T01:40:11.324Z,97060.31
2022-09-05T01:42:52.869Z,97062.97
2022-09-05T01:45:29.042Z,97066.47
2022-09-05T01:48:14.680Z,97068.53
2022-09-05T01:50:49.297Z,97064.75
2022-09-05T01:53:40.174Z,97062.09
2022-09-05T01:56:34.170Z,97064.09
2022-09-05T01:59:21.985Z,97062.50
2022-09-05T02:02:06.338Z,97052.13
2022-09-05T02:04:50.434Z,97053.25
2022-09-05T02:07:33.319Z,97044.75
2022-09-05T02:10:21.734Z,97051.03
2022-09-05T02:13:02.187Z,97057.44
2022-09-05T02:15:43.046Z,97062.34
2022-09-05T02:18:44.202Z,97065.84
2022-09-05T02:21:22.192Z,97063.75
2022-09-05T02:24:03.070Z,97056.84
2022-09-05T02:26:35.900Z,97061.63
2022-09-05T02:29:28.396Z,97059.91
2022-09-05T02:32:03.087Z,97062.56
2022-09-05T02:34:41.787Z,97057.41
2022-09-05T02:37:28.977Z,97056.97
2022-09-05T02:45:09.903Z,97056.53
2022-09-05T02:45:14.815Z,97064.97
2022-09-05T02:46:09.522Z,97060.19
2022-09-05T02:48:55.349Z,97059.34
2022-09-05T02:57:28.390Z,97059.63
2022-09-05T02:57:38.792Z,97066.31
2022-09-05T02:58:06.037Z,97057.63
2022-09-05T03:00:24.299Z,97055.38
2022-09-05T03:03:21.307Z,97042.25
2022-09-05T03:05:57.950Z,97045.88
2022-09-05T03:08:44.403Z,97034.78
2022-09-05T03:11:58.113Z,97045.16
2022-09-05T03:15:22.239Z,97036.63
2022-09-05T03:18:21.113Z,97044.47
2022-09-05T03:21:29.320Z,97046.53
2022-09-05T03:24:29.376Z,97049.34
2022-09-05T03:27:29.096Z,97041.63
2022-09-05T03:30:09.747Z,97045.28
2022-09-05T03:33:13.967Z,97044.69
2022-09-05T03:36:28.601Z,97037.84
2022-09-05T03:39:35.682Z,97048.59
2022-09-05T03:42:31.234Z,97051.41
2022-09-05T03:45:36.295Z,97050.28
2022-09-05T03:48:29.310Z,97053.22
2022-09-05T03:57:07.965Z,97051.66
2022-09-05T03:57:22.886Z,97051.81
2022-09-05T03:57:48.514Z,97056.41
2022-09-05T04:00:22.202Z,97048.44
2022-09-05T04:07:41.458Z,97052.19
2022-09-05T04:08:16.627Z,97049.97
2022-09-05T04:08:57.098Z,97039.34
2022-09-05T04:11:37.128Z,97037.94
2022-09-05T04:14:13.117Z,97034.34
2022-09-05T04:16:51.212Z,97035.56
2022-09-05T04:19:27.806Z,97042.00
2022-09-05T04:22:07.161Z,97042.28
2022-09-05T04:24:43.667Z,97037.53
2022-09-05T04:27:30.331Z,97046.34
2022-09-05T04:30:11.684Z,97048.31
2022-09-05T04:33:00.579Z,97045.66
2022-09-05T04:35:37.677Z,97045.66
2022-09-05T04:38:14.731Z,97053.75
2022-09-05T04:40:47.627Z,97054.59
2022-09-05T04:43:26.409Z,97059.59
2022-09-05T04:46:00.228Z,97061.41
2022-09-05T04:48:35.987Z,97062.25
2022-09-05T04:51:12.930Z,97057.63
2022-09-05T04:54:02.111Z,97048.72
2022-09-05T04:56:36.184Z,97051.81
2022-09-05T05:02:29.888Z,97062.56
2022-09-05T05:06:03.644Z,97063.28
2022-09-05T05:06:13.326Z,97064.69
2022-09-05T05:07:59.179Z,97062.28
2022-09-05T05:13:49.116Z,97071.84
2022-09-05T05:16:20.644Z,97069.56
2022-09-05T05:18:10.381Z,97075.72
2022-09-05T05:19:21.999Z,97073.91
2022-09-05T05:21:53.824Z,97083.44
2022-09-05T05:24:25.330Z,97073.78
2022-09-05T05:27:01.315Z,97072.91
2022-09-05T05:29:39.795Z,97084.97
2022-09-05T05:32:08.623Z,97083.31
2022-09-05T05:34:46.204Z,97083.88
2022-09-05T05:37:22.082Z,97093.16
2022-09-05T05:39:59.002Z,97092.88
2022-09-05T05:42:27.076Z,97088.13
2022-09-05T05:44:58.750Z,97096.66
2022-09-05T05:47:32.190Z,97096.41
2022-09-05T05:50:11.287Z,97100.88
2022-09-05T05:52:57.216Z,97103.97
2022-09-05T05:55:57.631Z,97110.59
2022-09-05T05:58:53.374Z,97113.69
2022-09-05T06:02:07.103Z,97116.06
2022-09-05T06:05:14.246Z,97124.34
2022-09-05T06:09:17.017Z,97119.34
2022-09-05T06:14:50.672Z,97119.63
2022-09-05T06:15:04.849Z,97112.66
2022-09-05T06:17:23.934Z,97115.50
2022-09-05T06:22:04.631Z,97116.09
2022-09-05T06:23:47.012Z,97118.47
2022-09-05T06:26:54.877Z,97110.50
2022-09-05T06:29:38.280Z,97107.69
2022-09-05T06:32:28.255Z,97109.50
2022-09-05T06:35:23.231Z,97109.94
2022-09-05T06:38:05.525Z,97116.38
2022-09-05T06:40:42.198Z,97114.13
2022-09-05T06:43:25.128Z,97116.94
2022-09-05T06:46:12.976Z,97108.06
2022-09-05T06:49:30.178Z,97117.19
2022-09-05T06:52:01.077Z,97127.03
2022-09-05T06:55:33.867Z,97119.81
2022-09-05T06:58:37.480Z,97116.00
2022-09-05T07:01:08.880Z,97114.41
2022-09-05T07:04:33.360Z,97114.25
2022-09-05T07:07:06.516Z,97122.91
2022-09-05T07:09:49.016Z,97121.72
2022-09-05T07:12:22.986Z,97121.53
2022-09-05T07:14:59.425Z,97123.44
2022-09-05T07:18:09.940Z,97122.94
2022-09-05T07:21:15.969Z,97116.91
2022-09-05T07:24:08.866Z,97114.38
2022-09-05T07:26:53.762Z,97115.47
2022-09-05T07:29:29.664Z,97116.22
2022-09-05T07:32:02.064Z,97108.47
2022-09-05T07:34:31.669Z,97113.75
2022-09-05T07:37:15.951Z,97116.66
2022-09-05T07:39:52.765Z,97116.72
2022-09-05T07:42:26.609Z,97115.78
2022-09-05T07:44:59.027Z,97118.50
2022-09-05T07:47:31.370Z,97111.94
2022-09-05T07:50:40.167Z,97118.19
2022-09-05T07:56:52.456Z,97109.75
2022-09-05T07:56:56.794Z,97118.16
2022-09-05T07:58:40.834Z,97112.03
2022-09-05T08:01:12.629Z,97118.09
2022-09-05T08:03:43.145Z,97117.13
2022-09-05T08:07:48.308Z,97104.59
2022-09-05T08:09:21.349Z,97114.19
2022-09-05T08:12:09.668Z,97117.56
2022-09-05T08:14:46.117Z,97108.41
2022-09-05T08:17:18.863Z,97118.16
2022-09-05T08:19:57.893Z,97109.63
2022-09-05T08:22:52.352Z,97106.47
2022-09-05T08:25:25.565Z,97100.28
2022-09-05T08:28:06.773Z,97104.44
2022-09-05T08:30:44.060Z,97105.47
2022-09-05T08:33:15.857Z,97104.78
2022-09-05T08:35:49.847Z,97108.50
2022-09-05T08:38:21.994Z,97109.84
2022-09-05T08:40:56.379Z,97100.44
2022-09-05T08:46:39.282Z,97105.13
2022-09-05T08:46:41.899Z,97099.22
2022-09-05T08:49:37.787Z,97095.03
2022-09-05T08:52:15.693Z,97100.53
2022-09-05T08:55:04.359Z,97100.63
2022-09-05T08:58:07.858Z,97099.31
2022-09-05T09:00:55.017Z,97104.81
2022-09-05T09:03:30.697Z,97098.91
2022-09-05T09:06:35.650Z,97093.84
2022-09-05T09:09:16.576Z,97100.19
2022-09-05T09:11:54.045Z,97092.06
2022-09-05T09:14:36.575Z,97102.59
2022-09-05T09:17:20.039Z,97092.88
2022-09-05T09:19:53.058Z,97095.16
2022-09-05T09:22:39.274Z,97085.38
2022-09-05T09:25:15.020Z,97082.44
2022-09-05T09:28:49.672Z,97074.38
2022-09-05T09:31:00.108Z,97074.00
2022-09-05T09:33:39.494Z,97082.78
2022-09-05T09:36:22.420Z,97080.53
2022-09-05T09:39:37.541Z,97078.50
2022-09-05T09:42:33.661Z,97081.03
2022-09-05T09:45:31.997Z,97064.34
2022-09-05T09:48:32.622Z,97074.19
2022-09-05T09:51:13.139Z,97066.88
2022-09-05T09:53:54.730Z,97062.63
2022-09-05T09:56:42.460Z,97059.00
2022-09-05T09:59:31.825Z,97069.31
2022-09-05T10:04:39.596Z,97071.19
2022-09-05T10:10:39.642Z,97073.97
2022-09-05T10:11:25.760Z,97073.53
2022-09-05T10:11:53.457Z,97072.75
2022-09-05T10:14:58.395Z,97070.06
2022-09-05T10:17:44.458Z,97067.97
2022-09-05T10:20:29.693Z,97069.91
2022-09-05T10:23:30.329Z,97060.53
2022-09-05T10:26:36.581Z,97053.09
2022-09-05T10:29:34.768Z,97048.41
2022-09-05T10:35:06.907Z,97043.94
2022-09-05T10:35:22.834Z,97037.28
2022-09-05T10:37:51.728Z,97032.31
2022-09-05T10:40:23.108Z,97038.63
2022-09-05T10:43:00.190Z,97025.97
2022-09-05T10:45:40.047Z,97028.22
2022-09-05T10:48:18.042Z,97026.78
2022-09-05T10:50:50.809Z,97034.94
2022-09-05T10:53:25.470Z,97036.16
2022-09-05T10:56:03.348Z,97033.31
2022-09-05T11:02:17.247Z,97033.06
2022-09-05T11:02:29.254Z,97016.06
2022-09-05T11:04:46.695Z,97023.09
2022-09-05T11:07:27.827Z,97022.56
2022-09-05T11:10:08.273Z,97020.25
2022-09-05T11:12:58.335Z,97029.38
2022-09-05T11:15:35.146Z,97018.69
2022-09-05T11:18:06.821Z,97019.53
2022-09-05T11:21:01.917Z,97019.69
2022-09-05T11:23:40.109Z,97009.34
2022-09-05T11:26:32.072Z,97001.34
2022-09-05T11:29:06.215Z,97007.38
2022-09-05T11:32:08.498Z,97012.13
2022-09-05T11:39:47.121Z,97011.94
2022-09-05T11:40:07.272Z,96998.13
2022-09-05T11:41:49.513Z,96998.81
2022-09-05T11:44:28.089Z,96997.47
2022-09-05T11:47:40.927Z,97002.03
2022-09-05T11:50:44.891Z,97000.88
2022-09-05T11:53:41.939Z,96994.13
2022-09-05T11:56:41.940Z,97003.78
2022-09-05T11:59:35.172Z,96999.22
2022-09-05T12:02:27.342Z,97004.31
2022-09-05T12:05:49.884Z,97003.03
2022-09-05T12:08:21.308Z,96998.69
2022-09-05T12:11:06.127Z,96998.84
2022-09-05T12:13:42.482Z,96995.16
2022-09-05T12:16:27.309Z,96996.56
2022-09-05T12:19:18.865Z,96987.63
2022-09-05T12:22:10.018Z,96989.16
2022-09-05T12:26:30.817Z,96985.25
2022-09-05T12:28:33.105Z,96988.72
2022-09-05T12:30:55.110Z,96987.72
2022-09-05T12:36:02.409Z,96990.72
2022-09-05T12:40:04.674Z,96979.47
2022-09-05T12:41:35.630Z,96966.88
2022-09-05T12:42:38.619Z,96969.19
2022-09-05T12:45:28.159Z,96961.56
2022-09-05T12:48:13.490Z,96961.38
2022-09-05T12:50:52.516Z,96956.63
2022-09-05T12:53:21.929Z,96950.22
2022-09-05T12:56:15.834Z,96948.28
2022-09-05T13:03:00.827Z,96946.50
2022-09-05T13:03:13.476Z,96937.56
2022-09-05T13:04:32.670Z,96945.63
2022-09-05T13:07:09.462Z,96942.75
2022-09-05T13:11:17.305Z,96940.03
2022-09-05T13:14:54.224Z,96940.41
2022-09-05T13:15:26.968Z,96935.47
2022-09-05T13:18:10.292Z,96934.03
2022-09-05T13:20:46.744Z,96934.94
2022-09-05T13:23:23.551Z,96928.06
2022-09-05T13:25:58.569Z,96920.16
2022-09-05T13:28:30.287Z,96919.75
2022-09-05T13:33:31.316Z,96923.25
2022-09-05T13:38:17.823Z,96918.13
2022-09-05T13:38:20.930Z,96917.91
2022-09-05T13:39:49.061Z,96907.53
2022-09-05T13:42:20.943Z,96911.31
2022-09-05T13:44:53.814Z,96911.91
2022-09-05T13:47:41.029Z,96906.72
2022-09-05T13:50:22.418Z,96905.69
2022-09-05T13:52:56.715Z,96907.78
2022-09-05T13:55:37.927Z,96904.84
2022-09-05T13:58:10.261Z,96905.47
2022-09-05T14:01:21.131Z,96901.50
2022-09-05T14:07:55.648Z,96882.00
2022-09-05T14:10:47.827Z,96876.56
2022-09-05T14:13:20.090Z,96876.59
2022-09-05T14:15:55.165Z,96875.34
2022-09-05T14:18:25.402Z,96869.94
2022-09-05T14:21:12.975Z,96875.78
2022-09-05T14:23:56.023Z,96876.03
2022-09-05T14:26:36.368Z,96877.94
2022-09-05T14:29:16.786Z,96878.97
2022-09-05T14:37:34.567Z,96875.81
2022-09-05T14:37:51.717Z,96877.28
2022-09-05T14:38:09.785Z,96869.81
2022-09-05T14:41:20.467Z,96861.31
2022-09-05T14:44:19.623Z,96868.34
2022-09-05T14:47:35.234Z,96862.94
2022-09-05T14:50:23.217Z,96869.59
2022-09-05T14:55:58.715Z,96856.91
2022-09-05T15:02:39.547Z,96856.31
2022-09-05T15:02:54.232Z,96853.59
2022-09-05T15:07:02.942Z,96851.72
2022-09-05T15:12:15.943Z,96856.72
2022-09-05T15:12:38.547Z,96847.13
2022-09-05T15:15:18.154Z,96840.69
2022-09-05T15:17:52.289Z,96843.41
2022-09-05T15:20:33.321Z,96844.25
2022-09-05T15:23:16.086Z,96834.00
2022-09-05T15:25:48.234Z,96830.72
2022-09-05T15:28:21.584Z,96834.03
2022-09-05T15:30:58.823Z,96834.66
2022-09-05T15:33:29.905Z,96837.19
2022-09-05T15:35:58.837Z,96838.00
2022-09-05T15:38:30.074Z,96834.22
2022-09-05T15:41:21.532Z,96832.19
2022-09-05T15:43:58.315Z,96822.19
2022-09-05T15:46:42.306Z,96835.91
2022-09-05T15:49:23.239Z,96826.75
2022-09-05T15:51:53.520Z,96829.28
2022-09-05T15:54:37.807Z,96825.50
2022-09-05T15:57:17.663Z,96829.25
2022-09-05T15:59:49.363Z,96816.97
2022-09-05T16:02:22.696Z,96826.91
2022-09-05T16:10:30.984Z,96825.47
2022-09-05T16:10:41.774Z,96824.22
2022-09-05T16:11:06.803Z,96821.94
2022-09-05T16:13:52.507Z,96814.44
2022-09-05T16:23:11.753Z,96817.56
2022-09-05T16:23:29.333Z,96816.53
2022-09-05T16:23:33.473Z,96812.38
2022-09-05T16:25:05.692Z,96817.34
2022-09-05T16:27:43.842Z,96814.25
2022-09-05T16:30:15.811Z,96808.41
2022-09-05T16:32:46.532Z,96807.56
2022-09-05T16:35:25.150Z,96806.53
2022-09-05T16:38:04.594Z,96810.91
2022-09-05T16:40:36.516Z,96808.00
2022-09-05T16:43:10.586Z,96801.97
2022-09-05T16:45:47.845Z,96803.22
2022-09-05T16:48:44.826Z,96802.97
2022-09-05T16:51:35.472Z,96797.56
2022-09-05T16:54:16.732Z,96796.34
2022-09-05T16:56:49.144Z,96790.34
2022-09-05T16:59:20.879Z,96782.44
2022-09-05T17:02:06.368Z,96794.06
2022-09-05T17:05:04.829Z,96794.69
2022-09-05T17:08:01.586Z,96792.19
2022-09-05T17:10:34.950Z,96795.09
2022-09-05T17:13:04.917Z,96785.94
2022-09-05T17:15:36.272Z,96796.34
2022-09-05T17:18:19.027Z,96791.34
2022-09-05T17:20:54.659Z,96791.53
2022-09-05T17:28:05.180Z,96789.25
2022-09-05T17:29:36.338Z,96790.69
2022-09-05T17:32:42.599Z,96785.06
2022-09-05T17:35:43.279Z,96788.34
2022-09-05T17:38:42.631Z,96790.22
2022-09-05T17:41:43.294Z,96793.47
2022-09-05T17:44:21.262Z,96793.25
2022-09-05T17:47:05.649Z,96791.59
2022-09-05T17:49:43.216Z,96795.25
2022-09-05T17:52:29.240Z,96797.31
2022-09-05T17:54:57.589Z,96796.47
2022-09-05T17:57:44.295Z,96791.84
2022-09-05T18:00:59.985Z,96794.31
2022-09-05T18:04:16.070Z,96800.69
2022-09-05T18:10:15.412Z,96804.34
2022-09-05T18:13:12.692Z,96798.91
2022-09-05T18:16:12.119Z,96805.25
2022-09-05T18:19:32.912Z,96811.47
2022-09-05T18:21:48.519Z,96807.25
2022-09-05T18:28:03.073Z,96814.19
2022-09-05T18:33:54.636Z,96821.13
2022-09-05T18:36:35.874Z,96825.19
2022-09-05T18:39:37.482Z,96835.91
2022-09-05T18:42:34.485Z,96840.75
2022-09-05T18:45:14.731Z,96837.97
2022-09-05T18:47:54.149Z,96842.25
2022-09-05T18:50:32.297Z,96835.97
2022-09-05T18:53:10.572Z,96836.09
2022-09-05T18:56:13.820Z,96835.38
2022-09-05T18:58:51.653Z,96834.28
2022-09-05T19:01:43.666Z,96838.09
2022-09-05T19:04:41.556Z,96840.53
2022-09-05T19:07:14.848Z,96841.44
2022-09-05T19:10:06.572Z,96844.03
2022-09-05T19:12:54.031Z,96842.66
2022-09-05T19:15:25.119Z,96840.97
2022-09-05T19:18:03.709Z,96851.66
2022-09-05T19:21:11.965Z,96850.72
2022-09-05T19:23:48.497Z,96846.09
2022-09-05T19:26:17.276Z,96845.53
2022-09-05T19:36:49.414Z,96843.56
2022-09-05T19:36:58.423Z,96839.22
2022-09-05T19:37:09.250Z,96839.94
2022-09-05T19:37:47.425Z,96837.69
2022-09-05T19:47:28.932Z,96834.44
2022-09-05T19:47:39.306Z,96838.69
2022-09-05T19:47:41.867Z,96834.72
2022-09-05T19:49:04.698Z,96837.63
2022-09-05T19:51:33.416Z,96825.19
2022-09-05T19:54:04.374Z,96830.94
2022-09-05T19:56:35.853Z,96825.28
2022-09-05T19:59:16.550Z,96824.13
2022-09-05T20:01:46.376Z,96821.97
2022-09-05T20:04:18.656Z,96819.00
2022-09-05T20:06:47.177Z,96810.16
2022-09-05T20:09:18.060Z,96810.38
2022-09-05T20:11:50.742Z,96806.38
2022-09-05T20:14:21.291Z,96805.88
2022-09-05T20:16:50.767Z,96805.41
2022-09-05T20:19:31.141Z,96800.75
2022-09-05T20:22:12.793Z,96797.31
2022-09-05T20:24:53.553Z,96794.13
2022-09-05T20:27:27.381Z,96799.72
2022-09-05T20:29:58.576Z,96800.75
2022-09-05T20:32:39.622Z,96794.22
2022-09-05T20:41:30.585Z,96799.13
2022-09-05T20:43:17.264Z,96800.31
2022-09-05T20:43:22.630Z,96804.13
2022-09-05T20:44:00.054Z,96809.38
2022-09-05T20:54:05.337Z,96815.44
2022-09-05T20:54:14.765Z,96816.50
2022-09-05T20:54:16.030Z,96822.16
2022-09-05T20:55:38.672Z,96817.50
2022-09-05T20:58:12.888Z,96816.34
2022-09-05T21:01:15.400Z,96817.06
2022-09-05T21:03:37.888Z,96825.63
2022-09-05T21:06:22.036Z,96823.47
2022-09-05T21:08:51.091Z,96812.44
2022-09-05T21:11:29.406Z,96817.63
2022-09-05T21:14:02.446Z,96812.78
2022-09-05T21:16:32.962Z,96820.00
2022-09-05T21:19:00.962Z,96817.63
2022-09-05T21:21:30.695Z,96807.78
2022-09-05T21:24:18.065Z,96813.50
2022-09-05T21:26:48.536Z,96816.69
2022-09-05T21:29:26.070Z,96819.22
2022-09-05T21:32:02.351Z,96822.03
2022-09-05T21:34:38.404Z,96827.06
2022-09-05T21:37:14.966Z,96832.91
2022-09-05T21:40:00.445Z,96822.03
2022-09-05T21:45:50.549Z,96822.56
2022-09-05T21:47:47.161Z,96827.41
2022-09-05T21:48:10.567Z,96826.06
2022-09-05T21:50:41.025Z,96820.06
2022-09-05T21:55:56.130Z,96809.84
2022-09-05T21:59:19.875Z,96816.19
2022-09-05T21:59:27.556Z,96815.03
2022-09-05T22:01:58.670Z,96803.66
2022-09-05T22:04:27.322Z,96805.50
2022-09-05T22:06:58.256Z,96798.97
2022-09-05T22:09:26.168Z,96801.81
2022-09-05T22:11:54.200Z,96807.34
2022-09-05T22:14:24.182Z,96802.66
2022-09-05T22:16:55.832Z,96801.13
2022-09-05T22:19:37.165Z,96802.16
2022-09-05T22:22:16.255Z,96802.66
2022-09-05T22:24:49.779Z,96799.97
2022-09-05T22:27:20.138Z,96792.44
2022-09-05T22:29:50.514Z,96789.44
2022-09-05T22:32:33.873Z,96797.97
2022-09-05T22:35:27.810Z,96793.78
2022-09-05T22:38:00.556Z,96801.28
2022-09-05T22:40:30.418Z,96791.75
2022-09-05T22:42:59.013Z,96798.63
2022-09-05T22:45:27.702Z,96807.31
2022-09-05T22:47:56.000Z,96799.13
2022-09-05T22:50:26.514Z,96800.28
2022-09-05T22:52:54.433Z,96801.72
2022-09-05T22:55:22.369Z,96800.91
2022-09-05T22:57:50.258Z,96812.63
2022-09-05T23:00:18.394Z,96810.44
2022-09-05T23:02:51.662Z,96802.72
2022-09-05T23:05:20.557Z,96793.53
2022-09-05T23:07:49.827Z,96797.56
2022-09-05T23:10:17.916Z,96787.84
2022-09-05T23:12:46.102Z,96788.50
2022-09-05T23:15:14.276Z,96790.16
2022-09-05T23:17:42.323Z,96785.66
2022-09-05T23:20:11.524Z,96782.28
2022-09-05T23:22:40.037Z,96784.28
2022-09-05T23:25:10.667Z,96786.13
2022-09-05T23:27:39.562Z,96785.31
2022-09-05T23:30:09.581Z,96780.44
2022-09-05T23:32:37.807Z,96778.06
2022-09-05T23:35:06.578Z,96782.94
2022-09-05T23:37:34.692Z,96774.38
2022-09-05T23:40:03.042Z,96779.72
2022-09-05T23:42:32.524Z,96771.22
2022-09-05T23:45:00.664Z,96772.88
2022-09-05T23:47:29.733Z,96770.53
2022-09-05T23:49:58.055Z,96764.50
2022-09-05T23:52:26.159Z,96768.34
2022-09-05T23:54:54.281Z,96768.50
2022-09-05T23:57:23.688Z,96763.47
2022-09-05T23:59:53.151Z,96759.16
